National Weather Service United States Department of Commerce

Severe Storms; Fire Danger; and Strong Pacific Storms

More strong storms on tap for the Pacific Northwest this weekend. Heavy rains could produce flooding and mudslides. Saturday, a cold front moving into the central U.S. will bring potential for severe thunderstorms containing damaging winds, large hail, and isolated tornadoes; and localized flooding potential. Dry winds in southwestern California will keep fire weather threats high. Read More >

                                     ZTL Airspace Summary / KBHM TAF                       For ATC Planning Purposes Only
ZTL Airspace Summary:
High pressure will continue to dominate the airspace. Expect VFR conditions over all ZTL this afternoon and evening with MVFR and patchy IFR conditions developing after 07z Sunday morning, mostly in AL/GA/SC. Surface winds will be north to southeast at 3-10kts and frequently calm after 23z. Flight Hazards: None expected.

Updated:10/21/2017 5:00 PM
 

BHM Terminal Aerodrome Forecast:
 
FTUS80 KBHM 212342
KBHM 212338Z 2200/2224 13005KT P6SM BKN250
     FM221100 13007KT P6SM SCT020 BKN150
     FM221500 13011G18KT P6SM BKN040 OVC150
     FM222200 15010G18KT 5SM RA VCTS OVC040CB

 

BHM METAR:
 
SAUS70 KBHM 220100 RRB
METAR KBHM 220053Z 12005KT 10SM BKN250 22/16 A3022 RMK AO2 SLP227
     T02170156

Go to KBHM TAF TDA
Go to KBHM TAF TDA

BHM TRACON HAZARDS
BHM TRACON: SFC-10000
AVG CIG BASE WHERE REPORTED BLW 10000FT: NONE REPORTED
LOWEST REPORTED CIG: NONE REPORTED
LOWEST REPORTED FLIGHT CAT: VFR
METARS:
KBHM 220053Z 12005KT 10SM BKN250 22/16 A3022 RMK AO2 SLP227 T02170156
KJFX 220055Z AUTO 00000KT 10SM CLR 17/17 A3018 RMK AO2 PWINO
KSCD 220055Z AUTO 00000KT 10SM SCT050 17/17 A3021 RMK AO2 T01740174
KPLR 220055Z AUTO 00000KT 10SM CLR 16/16 A3022 RMK A01
KEKY 220056Z AUTO 12004KT 10SM CLR 21/17 A3020 RMK AO2 SLP241 T02110167
KEET 220053Z AUTO 11003KT 10SM CLR 21/18 A3020 RMK AO2 SLP222 T02110178

BHM TRACON HAZARD

Forecast Surface Map Loop / Collaborative Convective Forecast Product / Vertical Wind Profile
Weather Map

 

AIRMETs & SIGMETS/ Southeast Radar loop / Satellite Image (click on image to enlarge)
Weather Map Southeast Radar Loop

satellite